sensor_id;sensor_type;location;lat;lon;timestamp;pressure;altitude;pressure_sealevel;temperature;humidity
20424;BME280;10371;49.042;8.002;2023-04-06T00:00:45;100171.28;;;0.76;80.93
20424;BME280;10371;49.042;8.002;2023-04-06T00:01:45;100172.28;;;0.72;80.79
20424;BME280;10371;49.042;8.002;2023-04-06T00:02:46;100170.63;;;0.71;80.91
20424;BME280;10371;49.042;8.002;2023-04-06T00:03:47;100168.16;;;0.68;81.10
20424;BME280;10371;49.042;8.002;2023-04-06T00:04:47;100171.63;;;0.67;81.19
20424;BME280;10371;49.042;8.002;2023-04-06T00:05:48;100175.94;;;0.65;81.61
20424;BME280;10371;49.042;8.002;2023-04-06T00:06:48;100170.84;;;0.65;81.67
20424;BME280;10371;49.042;8.002;2023-04-06T00:07:49;100163.19;;;0.63;81.92
20424;BME280;10371;49.042;8.002;2023-04-06T00:08:49;100158.13;;;0.62;82.22
20424;BME280;10371;49.042;8.002;2023-04-06T00:09:49;100169.06;;;0.67;82.06
20424;BME280;10371;49.042;8.002;2023-04-06T00:10:50;100158.84;;;0.65;82.29
20424;BME280;10371;49.042;8.002;2023-04-06T00:11:50;100160.50;;;0.66;82.51
20424;BME280;10371;49.042;8.002;2023-04-06T00:12:50;100171.63;;;0.67;82.30
20424;BME280;10371;49.042;8.002;2023-04-06T00:13:51;100170.66;;;0.70;82.70
20424;BME280;10371;49.042;8.002;2023-04-06T00:14:51;100166.38;;;0.70;82.40
20424;BME280;10371;49.042;8.002;2023-04-06T00:15:51;100167.16;;;0.72;82.68
20424;BME280;10371;49.042;8.002;2023-04-06T00:16:51;100163.88;;;0.69;82.76
20424;BME280;10371;49.042;8.002;2023-04-06T00:17:52;100167.38;;;0.66;82.66
20424;BME280;10371;49.042;8.002;2023-04-06T00:18:52;100165.03;;;0.60;82.94
20424;BME280;10371;49.042;8.002;2023-04-06T00:19:52;100165.13;;;0.57;82.57
20424;BME280;10371;49.042;8.002;2023-04-06T00:20:53;100164.41;;;0.53;82.70
20424;BME280;10371;49.042;8.002;2023-04-06T00:21:53;100163.53;;;0.53;83.02
20424;BME280;10371;49.042;8.002;2023-04-06T00:22:53;100158.53;;;0.50;82.70
20424;BME280;10371;49.042;8.002;2023-04-06T00:23:54;100156.97;;;0.46;82.68
20424;BME280;10371;49.042;8.002;2023-04-06T00:24:55;100159.53;;;0.46;83.11
20424;BME280;10371;49.042;8.002;2023-04-06T00:25:55;100159.69;;;0.41;82.95
20424;BME280;10371;49.042;8.002;2023-04-06T00:26:55;100158.00;;;0.40;83.10
20424;BME280;10371;49.042;8.002;2023-04-06T00:27:56;100159.78;;;0.38;83.36
20424;BME280;10371;49.042;8.002;2023-04-06T00:28:56;100161.44;;;0.39;83.49
20424;BME280;10371;49.042;8.002;2023-04-06T00:29:58;100158.00;;;0.40;83.68
20424;BME280;10371;49.042;8.002;2023-04-06T00:30:58;100160.59;;;0.38;84.00
20424;BME280;10371;49.042;8.002;2023-04-06T00:31:59;100155.56;;;0.37;83.87
20424;BME280;10371;49.042;8.002;2023-04-06T00:32:59;100158.16;;;0.35;83.96
20424;BME280;10371;49.042;8.002;2023-04-06T00:34:00;100155.59;;;0.35;84.40
20424;BME280;10371;49.042;8.002;2023-04-06T00:35:05;100154.75;;;0.35;84.45
20424;BME280;10371;49.042;8.002;2023-04-06T00:36:05;100152.16;;;0.36;84.58
20424;BME280;10371;49.042;8.002;2023-04-06T00:37:05;100157.22;;;0.38;84.90
20424;BME280;10371;49.042;8.002;2023-04-06T00:38:06;100155.56;;;0.37;84.66
20424;BME280;10371;49.042;8.002;2023-04-06T00:39:07;100151.38;;;0.34;85.00
20424;BME280;10371;49.042;8.002;2023-04-06T00:40:08;100147.22;;;0.30;84.92
20424;BME280;10371;49.042;8.002;2023-04-06T00:41:08;100153.25;;;0.29;84.92
20424;BME280;10371;49.042;8.002;2023-04-06T00:42:12;100153.25;;;0.29;84.98
20424;BME280;10371;49.042;8.002;2023-04-06T00:43:13;100153.25;;;0.29;84.94
20424;BME280;10371;49.042;8.002;2023-04-06T00:44:14;100152.34;;;0.30;85.39
20424;BME280;10371;49.042;8.002;2023-04-06T00:45:14;100152.34;;;0.30;84.96
20424;BME280;10371;49.042;8.002;2023-04-06T00:46:15;100151.47;;;0.31;85.04
20424;BME280;10371;49.042;8.002;2023-04-06T00:47:15;100146.34;;;0.31;85.34
20424;BME280;10371;49.042;8.002;2023-04-06T00:48:16;100147.13;;;0.33;85.46
20424;BME280;10371;49.042;8.002;2023-04-06T00:49:16;100142.84;;;0.34;85.46
20424;BME280;10371;49.042;8.002;2023-04-06T00:50:17;100149.69;;;0.33;85.38
20424;BME280;10371;49.042;8.002;2023-04-06T00:51:17;100138.69;;;0.31;85.27
20424;BME280;10371;49.042;8.002;2023-04-06T00:52:18;100141.28;;;0.30;85.64
20424;BME280;10371;49.042;8.002;2023-04-06T00:53:18;100144.03;;;0.24;85.65
20424;BME280;10371;49.042;8.002;2023-04-06T00:54:18;100140.84;;;0.17;85.71
20424;BME280;10371;49.042;8.002;2023-04-06T00:55:18;100145.19;;;0.15;85.71
20424;BME280;10371;49.042;8.002;2023-04-06T00:56:19;100139.28;;;0.13;85.79
20424;BME280;10371;49.042;8.002;2023-04-06T00:57:19;100140.19;;;0.10;85.94
20424;BME280;10371;49.042;8.002;2023-04-06T00:58:20;100138.47;;;0.11;86.06
20424;BME280;10371;49.042;8.002;2023-04-06T00:59:20;100141.03;;;0.11;86.16
20424;BME280;10371;49.042;8.002;2023-04-06T01:00:21;100141.09;;;0.09;86.40
20424;BME280;10371;49.042;8.002;2023-04-06T01:01:21;100139.38;;;0.10;86.16
20424;BME280;10371;49.042;8.002;2023-04-06T01:02:23;100139.38;;;0.10;86.32
20424;BME280;10371;49.042;8.002;2023-04-06T01:03:25;100145.44;;;0.07;86.70
20424;BME280;10371;49.042;8.002;2023-04-06T01:04:26;100140.31;;;0.07;86.59
20424;BME280;10371;49.042;8.002;2023-04-06T01:05:27;100136.91;;;0.07;86.57
20424;BME280;10371;49.042;8.002;2023-04-06T01:06:27;100140.38;;;0.06;86.49
20424;BME280;10371;49.042;8.002;2023-04-06T01:07:27;100137.75;;;0.07;86.65
20424;BME280;10371;49.042;8.002;2023-04-06T01:08:28;100140.38;;;0.06;86.54
20424;BME280;10371;49.042;8.002;2023-04-06T01:09:28;100131.72;;;0.08;86.69
20424;BME280;10371;49.042;8.002;2023-04-06T01:10:31;100133.44;;;0.08;86.52
20424;BME280;10371;49.042;8.002;2023-04-06T01:11:32;100129.34;;;0.04;86.41
20424;BME280;10371;49.042;8.002;2023-04-06T01:12:39;100132.81;;;0.01;86.08
20424;BME280;10371;49.042;8.002;2023-04-06T01:13:39;100129.44;;;0.01;86.26
20424;BME280;10371;49.042;8.002;2023-04-06T01:14:39;100136.19;;;0.03;86.21
20424;BME280;10371;49.042;8.002;2023-04-06T01:15:40;100130.28;;;0.01;86.20
20424;BME280;10371;49.042;8.002;2023-04-06T01:16:42;100125.19;;;-0.01;86.20
20424;BME280;10371;49.042;8.002;2023-04-06T01:17:42;100133.75;;;-0.02;86.02
20424;BME280;10371;49.042;8.002;2023-04-06T01:18:42;100125.25;;;-0.02;86.20
20424;BME280;10371;49.042;8.002;2023-04-06T01:19:43;100139.69;;;0.01;86.32
20424;BME280;10371;49.042;8.002;2023-04-06T01:20:44;100137.94;;;0.01;86.44
20424;BME280;10371;49.042;8.002;2023-04-06T01:21:44;100132.88;;;-0.01;86.75
20424;BME280;10371;49.042;8.002;2023-04-06T01:22:45;100133.75;;;-0.02;86.79
20424;BME280;10371;49.042;8.002;2023-04-06T01:23:45;100132.09;;;-0.03;86.94
20424;BME280;10371;49.042;8.002;2023-04-06T01:24:46;100131.31;;;-0.05;86.54
20424;BME280;10371;49.042;8.002;2023-04-06T01:25:46;100137.25;;;-0.04;86.58
20424;BME280;10371;49.042;8.002;2023-04-06T01:26:47;100126.97;;;-0.03;86.71
20424;BME280;10371;49.042;8.002;2023-04-06T01:27:47;100128.78;;;-0.06;86.53
20424;BME280;10371;49.042;8.002;2023-04-06T01:28:48;100129.63;;;-0.06;86.68
20424;BME280;10371;49.042;8.002;2023-04-06T01:29:48;100127.94;;;-0.07;86.56
20424;BME280;10371;49.042;8.002;2023-04-06T01:30:48;100126.31;;;-0.09;86.55
20424;BME280;10371;49.042;8.002;2023-04-06T01:31:49;100124.69;;;-0.12;86.78
20424;BME280;10371;49.042;8.002;2023-04-06T01:32:49;100121.38;;;-0.14;86.54
20424;BME280;10371;49.042;8.002;2023-04-06T01:33:50;100123.13;;;-0.16;86.54
20424;BME280;10371;49.042;8.002;2023-04-06T01:34:50;100121.53;;;-0.20;86.72
20424;BME280;10371;49.042;8.002;2023-04-06T01:35:51;100120.91;;;-0.27;87.07
20424;BME280;10371;49.042;8.002;2023-04-06T01:36:51;100115.91;;;-0.30;86.88
20424;BME280;10371;49.042;8.002;2023-04-06T01:37:51;100115.09;;;-0.32;87.08
20424;BME280;10371;49.042;8.002;2023-04-06T01:38:52;100120.19;;;-0.30;87.48
20424;BME280;10371;49.042;8.002;2023-04-06T01:39:52;100115.00;;;-0.29;87.34
20424;BME280;10371;49.042;8.002;2023-04-06T01:40:53;100118.47;;;-0.31;87.62
20424;BME280;10371;49.042;8.002;2023-04-06T01:41:53;100113.47;;;-0.34;88.21
20424;BME280;10371;49.042;8.002;2023-04-06T01:42:54;100109.19;;;-0.34;87.96
20424;BME280;10371;49.042;8.002;2023-04-06T01:43:54;100115.19;;;-0.35;88.19
20424;BME280;10371;49.042;8.002;2023-04-06T01:44:54;100112.59;;;-0.33;88.29
20424;BME280;10371;49.042;8.002;2023-04-06T01:45:55;100108.34;;;-0.34;88.53
20424;BME280;10371;49.042;8.002;2023-04-06T01:46:55;100114.25;;;-0.32;88.48
20424;BME280;10371;49.042;8.002;2023-04-06T01:47:56;100113.38;;;-0.31;88.84
20424;BME280;10371;49.042;8.002;2023-04-06T01:48:56;100111.72;;;-0.32;89.23
20424;BME280;10371;49.042;8.002;2023-04-06T01:49:57;100109.25;;;-0.35;89.35
20424;BME280;10371;49.042;8.002;2023-04-06T01:50:57;100107.63;;;-0.38;89.24
20424;BME280;10371;49.042;8.002;2023-04-06T01:51:57;100106.13;;;-0.45;89.33
20424;BME280;10371;49.042;8.002;2023-04-06T01:52:57;100119.19;;;-0.54;89.69
20424;BME280;10371;49.042;8.002;2023-04-06T01:53:58;100110.97;;;-0.64;90.10
20424;BME280;10371;49.042;8.002;2023-04-06T01:54:58;100111.03;;;-0.67;90.60
20424;BME280;10371;49.042;8.002;2023-04-06T01:55:58;100110.22;;;-0.68;91.09
20424;BME280;10371;49.042;8.002;2023-04-06T01:56:58;100110.09;;;-0.63;91.29
20424;BME280;10371;49.042;8.002;2023-04-06T01:57:59;100105.78;;;-0.61;91.13
20424;BME280;10371;49.042;8.002;2023-04-06T01:58:59;100109.97;;;-0.58;91.56
20424;BME280;10371;49.042;8.002;2023-04-06T01:59:59;100107.25;;;-0.54;91.55
20424;BME280;10371;49.042;8.002;2023-04-06T02:01:00;100108.06;;;-0.53;91.86
20424;BME280;10371;49.042;8.002;2023-04-06T02:02:00;100104.69;;;-0.54;91.74
20424;BME280;10371;49.042;8.002;2023-04-06T02:03:00;100105.47;;;-0.52;91.47
20424;BME280;10371;49.042;8.002;2023-04-06T02:04:01;100112.25;;;-0.51;91.63
20424;BME280;10371;49.042;8.002;2023-04-06T02:05:01;100105.44;;;-0.50;91.43
20424;BME280;10371;49.042;8.002;2023-04-06T02:06:01;100104.56;;;-0.49;91.81
20424;BME280;10371;49.042;8.002;2023-04-06T02:07:01;100103.72;;;-0.50;91.72
20424;BME280;10371;49.042;8.002;2023-04-06T02:08:02;100108.78;;;-0.48;91.71
20424;BME280;10371;49.042;8.002;2023-04-06T02:09:02;100098.50;;;-0.47;91.46
20424;BME280;10371;49.042;8.002;2023-04-06T02:10:03;100104.47;;;-0.46;91.30
20424;BME280;10371;49.042;8.002;2023-04-06T02:11:03;100101.88;;;-0.44;91.60
20424;BME280;10371;49.042;8.002;2023-04-06T02:12:03;100104.34;;;-0.43;91.65
20424;BME280;10371;49.042;8.002;2023-04-06T02:13:04;100102.63;;;-0.42;91.61
20424;BME280;10371;49.042;8.002;2023-04-06T02:14:04;100109.53;;;-0.44;91.22
20424;BME280;10371;49.042;8.002;2023-04-06T02:15:05;100110.50;;;-0.49;91.17
20424;BME280;10371;49.042;8.002;2023-04-06T02:16:05;100110.50;;;-0.49;91.28
20424;BME280;10371;49.042;8.002;2023-04-06T02:17:06;100113.88;;;-0.48;91.06
20424;BME280;10371;49.042;8.002;2023-04-06T02:18:06;100108.84;;;-0.50;91.18
20424;BME280;10371;49.042;8.002;2023-04-06T02:19:06;100112.25;;;-0.51;91.08
20424;BME280;10371;49.042;8.002;2023-04-06T02:20:07;100108.06;;;-0.53;90.87
20424;BME280;10371;49.042;8.002;2023-04-06T02:21:07;100109.69;;;-0.51;90.77
20424;BME280;10371;49.042;8.002;2023-04-06T02:22:09;100108.94;;;-0.53;90.76
20424;BME280;10371;49.042;8.002;2023-04-06T02:23:09;100115.69;;;-0.50;91.06
20424;BME280;10371;49.042;8.002;2023-04-06T02:24:09;100100.34;;;-0.50;91.17
20424;BME280;10371;49.042;8.002;2023-04-06T02:25:10;100106.22;;;-0.48;91.06
20424;BME280;10371;49.042;8.002;2023-04-06T02:26:10;100107.13;;;-0.49;90.93
20424;BME280;10371;49.042;8.002;2023-04-06T02:27:10;100114.00;;;-0.51;90.90
20424;BME280;10371;49.042;8.002;2023-04-06T02:28:11;100112.34;;;-0.54;90.91
20424;BME280;10371;49.042;8.002;2023-04-06T02:29:11;100099.53;;;-0.52;91.41
20424;BME280;10371;49.042;8.002;2023-04-06T02:30:11;100108.16;;;-0.56;91.13
20424;BME280;10371;49.042;8.002;2023-04-06T02:31:12;100103.88;;;-0.56;90.94
20424;BME280;10371;49.042;8.002;2023-04-06T02:32:12;100110.78;;;-0.58;90.86
20424;BME280;10371;49.042;8.002;2023-04-06T02:33:12;100106.59;;;-0.60;90.76
20424;BME280;10371;49.042;8.002;2023-04-06T02:34:12;100110.88;;;-0.61;90.85
20424;BME280;10371;49.042;8.002;2023-04-06T02:35:17;100110.03;;;-0.61;91.03
20424;BME280;10371;49.042;8.002;2023-04-06T02:36:18;100108.38;;;-0.62;90.65
20424;BME280;10371;49.042;8.002;2023-04-06T02:37:18;100102.53;;;-0.68;90.96
20424;BME280;10371;49.042;8.002;2023-04-06T02:38:18;100100.81;;;-0.67;90.88
20424;BME280;10371;49.042;8.002;2023-04-06T02:39:19;100099.25;;;-0.71;90.74
20424;BME280;10371;49.042;8.002;2023-04-06T02:40:19;100106.13;;;-0.73;90.61
20424;BME280;10371;49.042;8.002;2023-04-06T02:41:19;100103.78;;;-0.81;90.51
20424;BME280;10371;49.042;8.002;2023-04-06T02:42:20;100104.69;;;-0.82;90.74
20424;BME280;10371;49.042;8.002;2023-04-06T02:43:20;100103.88;;;-0.84;91.07
20424;BME280;10371;49.042;8.002;2023-04-06T02:44:20;100105.66;;;-0.86;90.81
20424;BME280;10371;49.042;8.002;2023-04-06T02:45:21;100103.13;;;-0.87;91.05
20424;BME280;10371;49.042;8.002;2023-04-06T02:46:21;100112.41;;;-0.83;91.07
20424;BME280;10371;49.042;8.002;2023-04-06T02:47:21;100099.53;;;-0.80;91.24
20424;BME280;10371;49.042;8.002;2023-04-06T02:48:21;100104.66;;;-0.80;91.44
20424;BME280;10371;49.042;8.002;2023-04-06T02:49:22;100101.16;;;-0.78;91.49
20424;BME280;10371;49.042;8.002;2023-04-06T02:50:22;100096.91;;;-0.79;91.43
20424;BME280;10371;49.042;8.002;2023-04-06T02:51:22;100107.09;;;-0.77;91.45
20424;BME280;10371;49.042;8.002;2023-04-06T02:52:22;100108.75;;;-0.75;91.31
20424;BME280;10371;49.042;8.002;2023-04-06T02:53:23;100107.03;;;-0.76;91.31
20424;BME280;10371;49.042;8.002;2023-04-06T02:54:23;100099.47;;;-0.79;91.20
20424;BME280;10371;49.042;8.002;2023-04-06T02:55:23;100106.22;;;-0.76;91.52
20424;BME280;10371;49.042;8.002;2023-04-06T02:56:23;100109.59;;;-0.76;91.30
20424;BME280;10371;49.042;8.002;2023-04-06T02:57:24;100100.31;;;-0.78;91.24
20424;BME280;10371;49.042;8.002;2023-04-06T02:58:25;100110.50;;;-0.77;91.02
20424;BME280;10371;49.042;8.002;2023-04-06T02:59:25;100103.75;;;-0.79;91.27
20424;BME280;10371;49.042;8.002;2023-04-06T03:00:26;100108.75;;;-0.75;91.15
20424;BME280;10371;49.042;8.002;2023-04-06T03:01:26;100098.53;;;-0.76;91.16
20424;BME280;10371;49.042;8.002;2023-04-06T03:02:26;100103.53;;;-0.72;91.02
20424;BME280;10371;49.042;8.002;2023-04-06T03:03:27;100099.25;;;-0.71;91.07
20424;BME280;10371;49.042;8.002;2023-04-06T03:04:27;100099.34;;;-0.74;90.65
20424;BME280;10371;49.042;8.002;2023-04-06T03:05:27;100102.69;;;-0.72;90.69
20424;BME280;10371;49.042;8.002;2023-04-06T03:06:27;100095.03;;;-0.72;90.72
20424;BME280;10371;49.042;8.002;2023-04-06T03:07:28;100100.28;;;-0.77;90.52
20424;BME280;10371;49.042;8.002;2023-04-06T03:08:28;100096.78;;;-0.74;90.74
20424;BME280;10371;49.042;8.002;2023-04-06T03:09:28;100101.91;;;-0.74;90.26
20424;BME280;10371;49.042;8.002;2023-04-06T03:10:29;100104.38;;;-0.71;90.51
20424;BME280;10371;49.042;8.002;2023-04-06T03:11:29;100100.91;;;-0.70;90.08
20424;BME280;10371;49.042;8.002;2023-04-06T03:12:30;100101.78;;;-0.70;90.19
20424;BME280;10371;49.042;8.002;2023-04-06T03:13:30;100098.34;;;-0.70;90.34
20424;BME280;10371;49.042;8.002;2023-04-06T03:14:31;100093.25;;;-0.70;89.65
20424;BME280;10371;49.042;8.002;2023-04-06T03:15:31;100088.09;;;-0.69;89.62
20424;BME280;10371;49.042;8.002;2023-04-06T03:16:31;100089.72;;;-0.66;89.59
20424;BME280;10371;49.042;8.002;2023-04-06T03:17:31;100081.25;;;-0.68;89.33
20424;BME280;10371;49.042;8.002;2023-04-06T03:18:32;100092.28;;;-0.66;89.58
20424;BME280;10371;49.042;8.002;2023-04-06T03:19:32;100091.56;;;-0.70;89.57
20424;BME280;10371;49.042;8.002;2023-04-06T03:20:33;100091.63;;;-0.73;89.26
20424;BME280;10371;49.042;8.002;2023-04-06T03:21:33;100092.50;;;-0.74;89.33
20424;BME280;10371;49.042;8.002;2023-04-06T03:22:33;100091.72;;;-0.76;89.57
20424;BME280;10371;49.042;8.002;2023-04-06T03:23:33;100099.44;;;-0.77;89.60
20424;BME280;10371;49.042;8.002;2023-04-06T03:24:34;100091.91;;;-0.82;89.72
20424;BME280;10371;49.042;8.002;2023-04-06T03:25:34;100095.34;;;-0.83;89.72
20424;BME280;10371;49.042;8.002;2023-04-06T03:26:34;100098.75;;;-0.84;89.61
20424;BME280;10371;49.042;8.002;2023-04-06T03:27:34;100099.66;;;-0.85;89.84
20424;BME280;10371;49.042;8.002;2023-04-06T03:28:35;100092.81;;;-0.84;89.75
20424;BME280;10371;49.042;8.002;2023-04-06T03:29:35;100090.34;;;-0.86;89.90
20424;BME280;10371;49.042;8.002;2023-04-06T03:30:36;100095.44;;;-0.86;89.69
20424;BME280;10371;49.042;8.002;2023-04-06T03:31:37;100096.28;;;-0.85;90.13
20424;BME280;10371;49.042;8.002;2023-04-06T03:32:37;100098.03;;;-0.87;90.28
20424;BME280;10371;49.042;8.002;2023-04-06T03:33:37;100097.13;;;-0.86;90.62
20424;BME280;10371;49.042;8.002;2023-04-06T03:34:38;100098.81;;;-0.85;90.49
20424;BME280;10371;49.042;8.002;2023-04-06T03:35:39;100091.19;;;-0.87;90.60
20424;BME280;10371;49.042;8.002;2023-04-06T03:36:39;100102.25;;;-0.86;90.87
20424;BME280;10371;49.042;8.002;2023-04-06T03:37:39;100108.16;;;-0.84;90.63
20424;BME280;10371;49.042;8.002;2023-04-06T03:38:40;100099.63;;;-0.83;91.16
20424;BME280;10371;49.042;8.002;2023-04-06T03:39:40;100105.56;;;-0.83;91.16
20424;BME280;10371;49.042;8.002;2023-04-06T03:40:40;100101.22;;;-0.81;91.31
20424;BME280;10371;49.042;8.002;2023-04-06T03:41:40;100098.66;;;-0.81;91.04
20424;BME280;10371;49.042;8.002;2023-04-06T03:42:41;100104.56;;;-0.77;91.03
20424;BME280;10371;49.042;8.002;2023-04-06T03:43:41;100114.78;;;-0.77;90.85
20424;BME280;10371;49.042;8.002;2023-04-06T03:44:41;100101.28;;;-0.82;90.72
20424;BME280;10371;49.042;8.002;2023-04-06T03:45:42;100106.22;;;-0.76;90.98
20424;BME280;10371;49.042;8.002;2023-04-06T03:46:42;100108.75;;;-0.75;90.59
20424;BME280;10371;49.042;8.002;2023-04-06T03:47:42;100107.03;;;-0.76;90.24
20424;BME280;10371;49.042;8.002;2023-04-06T03:48:42;100103.75;;;-0.79;90.22
20424;BME280;10371;49.042;8.002;2023-04-06T03:49:43;100102.84;;;-0.78;90.09
20424;BME280;10371;49.042;8.002;2023-04-06T03:50:43;100107.97;;;-0.78;89.60
20424;BME280;10371;49.042;8.002;2023-04-06T03:51:43;100106.31;;;-0.79;89.48
20424;BME280;10371;49.042;8.002;2023-04-06T03:52:43;100104.59;;;-0.79;89.68
20424;BME280;10371;49.042;8.002;2023-04-06T03:53:44;100101.94;;;-0.76;89.82
20424;BME280;10371;49.042;8.002;2023-04-06T03:54:44;100107.09;;;-0.77;89.66
20424;BME280;10371;49.042;8.002;2023-04-06T03:55:44;100107.97;;;-0.78;89.76
20424;BME280;10371;49.042;8.002;2023-04-06T03:56:45;100110.47;;;-0.75;89.93
20424;BME280;10371;49.042;8.002;2023-04-06T03:57:45;100111.31;;;-0.76;89.43
20424;BME280;10371;49.042;8.002;2023-04-06T03:58:45;100113.94;;;-0.78;89.47
20424;BME280;10371;49.042;8.002;2023-04-06T03:59:49;100113.88;;;-0.76;89.14
20424;BME280;10371;49.042;8.002;2023-04-06T04:00:49;100114.78;;;-0.77;89.13
20424;BME280;10371;49.042;8.002;2023-04-06T04:01:50;100113.84;;;-0.75;89.10
20424;BME280;10371;49.042;8.002;2023-04-06T04:02:51;100113.88;;;-0.76;89.09
20424;BME280;10371;49.042;8.002;2023-04-06T04:03:51;100119.81;;;-0.76;88.83
20424;BME280;10371;49.042;8.002;2023-04-06T04:04:52;100123.97;;;-0.72;88.91
20424;BME280;10371;49.042;8.002;2023-04-06T04:05:52;100125.72;;;-0.72;88.62
20424;BME280;10371;49.042;8.002;2023-04-06T04:06:52;100122.22;;;-0.70;88.25
20424;BME280;10371;49.042;8.002;2023-04-06T04:07:53;100117.13;;;-0.70;88.19
20424;BME280;10371;49.042;8.002;2023-04-06T04:08:53;100124.78;;;-0.70;87.98
20424;BME280;10371;49.042;8.002;2023-04-06T04:09:53;100124.81;;;-0.71;88.43
20424;BME280;10371;49.042;8.002;2023-04-06T04:10:53;100129.94;;;-0.71;88.47
20424;BME280;10371;49.042;8.002;2023-04-06T04:11:54;100119.81;;;-0.76;88.50
20424;BME280;10371;49.042;8.002;2023-04-06T04:12:54;100119.78;;;-0.74;88.32
20424;BME280;10371;49.042;8.002;2023-04-06T04:13:54;100127.50;;;-0.76;88.41
20424;BME280;10371;49.042;8.002;2023-04-06T04:14:55;100126.56;;;-0.73;88.15
20424;BME280;10371;49.042;8.002;2023-04-06T04:15:55;100123.19;;;-0.74;88.58
20424;BME280;10371;49.042;8.002;2023-04-06T04:16:56;100127.41;;;-0.73;88.18
20424;BME280;10371;49.042;8.002;2023-04-06T04:17:56;100130.03;;;-0.74;88.05
20424;BME280;10371;49.042;8.002;2023-04-06T04:18:56;100130.75;;;-0.71;88.28
20424;BME280;10371;49.042;8.002;2023-04-06T04:19:58;100128.25;;;-0.72;88.10
20424;BME280;10371;49.042;8.002;2023-04-06T04:20:59;100137.59;;;-0.71;87.89
20424;BME280;10371;49.042;8.002;2023-04-06T04:21:59;100137.63;;;-0.73;88.15
20424;BME280;10371;49.042;8.002;2023-04-06T04:22:59;100131.78;;;-0.76;88.28
20424;BME280;10371;49.042;8.002;2023-04-06T04:23:59;100133.50;;;-0.77;88.32
20424;BME280;10371;49.042;8.002;2023-04-06T04:25:00;100136.88;;;-0.76;88.43
20424;BME280;10371;49.042;8.002;2023-04-06T04:26:00;100137.69;;;-0.74;88.55
20424;BME280;10371;49.042;8.002;2023-04-06T04:27:00;100139.50;;;-0.78;88.84
20424;BME280;10371;49.042;8.002;2023-04-06T04:28:01;100130.22;;;-0.80;88.44
20424;BME280;10371;49.042;8.002;2023-04-06T04:29:01;100134.44;;;-0.81;88.71
20424;BME280;10371;49.042;8.002;2023-04-06T04:30:02;100137.88;;;-0.80;88.57
20424;BME280;10371;49.042;8.002;2023-04-06T04:31:02;100143.00;;;-0.82;88.88
20424;BME280;10371;49.042;8.002;2023-04-06T04:32:02;100130.28;;;-0.83;89.15
20424;BME280;10371;49.042;8.002;2023-04-06T04:33:03;100131.91;;;-0.81;89.00
20424;BME280;10371;49.042;8.002;2023-04-06T04:34:03;100137.00;;;-0.81;89.41
20424;BME280;10371;49.042;8.002;2023-04-06T04:35:04;100132.78;;;-0.82;89.29
20424;BME280;10371;49.042;8.002;2023-04-06T04:36:05;100140.44;;;-0.80;89.28
20424;BME280;10371;49.042;8.002;2023-04-06T04:37:06;100139.53;;;-0.79;89.14
20424;BME280;10371;49.042;8.002;2023-04-06T04:38:06;100143.91;;;-0.83;89.50
20424;BME280;10371;49.042;8.002;2023-04-06T04:39:06;100144.75;;;-0.82;89.31
20424;BME280;10371;49.042;8.002;2023-04-06T04:40:07;100139.66;;;-0.84;89.10
20424;BME280;10371;49.042;8.002;2023-04-06T04:41:07;100141.44;;;-0.86;89.19
20424;BME280;10371;49.042;8.002;2023-04-06T04:42:07;100141.44;;;-0.86;89.18
20424;BME280;10371;49.042;8.002;2023-04-06T04:43:08;100140.56;;;-0.86;89.07
20424;BME280;10371;49.042;8.002;2023-04-06T04:44:08;100134.69;;;-0.88;89.18
20424;BME280;10371;49.042;8.002;2023-04-06T04:45:09;100138.88;;;-0.86;89.08
20424;BME280;10371;49.042;8.002;2023-04-06T04:46:09;100136.31;;;-0.86;89.25
20424;BME280;10371;49.042;8.002;2023-04-06T04:47:10;100137.19;;;-0.87;89.27
20424;BME280;10371;49.042;8.002;2023-04-06T04:48:10;100138.03;;;-0.86;89.13
20424;BME280;10371;49.042;8.002;2023-04-06T04:49:10;100138.91;;;-0.87;89.02
20424;BME280;10371;49.042;8.002;2023-04-06T04:50:11;100132.88;;;-0.85;88.77
20424;BME280;10371;49.042;8.002;2023-04-06T04:51:11;100128.69;;;-0.87;88.95
20424;BME280;10371;49.042;8.002;2023-04-06T04:52:11;100132.91;;;-0.86;88.77
20424;BME280;10371;49.042;8.002;2023-04-06T04:53:11;100133.81;;;-0.87;88.99
20424;BME280;10371;49.042;8.002;2023-04-06T04:54:12;100133.06;;;-0.91;89.05
20424;BME280;10371;49.042;8.002;2023-04-06T04:55:12;100142.44;;;-0.92;88.76
20424;BME280;10371;49.042;8.002;2023-04-06T04:56:12;100140.75;;;-0.93;88.95
20424;BME280;10371;49.042;8.002;2023-04-06T04:57:13;100140.75;;;-0.93;89.13
20424;BME280;10371;49.042;8.002;2023-04-06T04:58:13;100138.91;;;-0.87;89.24
20424;BME280;10371;49.042;8.002;2023-04-06T04:59:16;100145.34;;;-0.74;89.47
20424;BME280;10371;49.042;8.002;2023-04-06T05:00:17;100144.22;;;-0.64;89.24
20424;BME280;10371;49.042;8.002;2023-04-06T05:01:17;100144.66;;;-0.51;89.36
20424;BME280;10371;49.042;8.002;2023-04-06T05:02:18;100142.50;;;-0.35;88.87
20424;BME280;10371;49.042;8.002;2023-04-06T05:03:21;100135.38;;;-0.26;88.59
20424;BME280;10371;49.042;8.002;2023-04-06T05:04:22;100143.44;;;-0.11;87.73
20424;BME280;10371;49.042;8.002;2023-04-06T05:05:23;100140.44;;;0.03;87.11
20424;BME280;10371;49.042;8.002;2023-04-06T05:06:24;100138.53;;;0.09;86.41
20424;BME280;10371;49.042;8.002;2023-04-06T05:07:25;100137.34;;;0.19;85.56
20424;BME280;10371;49.042;8.002;2023-04-06T05:08:25;100140.66;;;0.23;84.69
20424;BME280;10371;49.042;8.002;2023-04-06T05:09:26;100145.56;;;0.29;84.37
20424;BME280;10371;49.042;8.002;2023-04-06T05:10:26;100144.41;;;0.38;83.90
20424;BME280;10371;49.042;8.002;2023-04-06T05:11:26;100148.38;;;0.47;83.57
20424;BME280;10371;49.042;8.002;2023-04-06T05:12:27;100147.41;;;0.51;82.87
20424;BME280;10371;49.042;8.002;2023-04-06T05:13:27;100138.00;;;0.51;82.84
20424;BME280;10371;49.042;8.002;2023-04-06T05:14:28;100139.50;;;0.57;82.82
20424;BME280;10371;49.042;8.002;2023-04-06T05:15:28;100146.28;;;0.58;82.29
20424;BME280;10371;49.042;8.002;2023-04-06T05:16:28;100147.09;;;0.60;82.29
20424;BME280;10371;49.042;8.002;2023-04-06T05:17:28;100141.97;;;0.60;81.90